createdAt,value
2023-04-18T00:00:12.421Z,10.45
2023-04-18T00:03:02.263Z,10.52
2023-04-18T00:05:31.390Z,10.51
2023-04-18T00:07:58.551Z,10.41
2023-04-18T00:10:26.057Z,10.65
2023-04-18T00:12:53.203Z,10.38
2023-04-18T00:15:20.441Z,10.60
2023-04-18T00:18:21.537Z,10.53
2023-04-18T00:20:48.890Z,10.49
2023-04-18T00:23:16.549Z,10.61
2023-04-18T00:25:43.916Z,10.65
2023-04-18T00:28:11.024Z,10.73
2023-04-18T00:30:38.501Z,10.77
2023-04-18T00:33:05.870Z,10.76
2023-04-18T00:35:33.440Z,10.52
2023-04-18T00:38:00.335Z,11.02
2023-04-18T00:40:27.698Z,10.80
2023-04-18T00:42:54.853Z,10.64
2023-04-18T00:45:22.373Z,10.66
2023-04-18T00:47:49.555Z,10.65
2023-04-18T00:50:17.128Z,10.77
2023-04-18T00:52:44.996Z,10.69
2023-04-18T00:55:12.961Z,10.69
2023-04-18T00:57:40.844Z,10.82
2023-04-18T01:00:12.468Z,10.67
2023-04-18T01:02:40.332Z,10.54
2023-04-18T01:05:08.829Z,10.63
2023-04-18T01:07:37.536Z,10.84
2023-04-18T01:10:05.524Z,10.74
2023-04-18T01:12:32.593Z,10.55
2023-04-18T01:15:00.870Z,10.71
2023-04-18T01:17:28.665Z,10.67
2023-04-18T01:23:37.579Z,10.69
2023-04-18T01:26:05.174Z,10.70
2023-04-18T01:28:36.782Z,10.77
2023-04-18T01:31:04.052Z,10.89
2023-04-18T01:33:31.182Z,10.97
2023-04-18T01:35:58.369Z,11.05
2023-04-18T01:38:25.487Z,10.73
2023-04-18T01:40:52.994Z,10.91
2023-04-18T01:43:20.016Z,10.92
2023-04-18T01:45:47.258Z,10.75
2023-04-18T01:48:14.550Z,10.86
2023-04-18T01:50:41.881Z,10.82
2023-04-18T01:53:08.855Z,10.86
2023-04-18T01:55:36.416Z,10.87
2023-04-18T01:58:03.362Z,11.00
2023-04-18T02:00:30.738Z,10.78
2023-04-18T02:03:01.079Z,10.72
2023-04-18T02:05:28.454Z,10.69
2023-04-18T02:07:56.080Z,10.70
2023-04-18T02:10:24.024Z,10.64
2023-04-18T02:12:50.921Z,10.83
2023-04-18T02:15:18.440Z,10.73
2023-04-18T02:17:45.894Z,10.82
2023-04-18T02:20:13.446Z,11.00
2023-04-18T02:22:40.527Z,10.80
2023-04-18T02:25:08.266Z,10.90
2023-04-18T02:27:38.076Z,10.74
2023-04-18T02:30:06.186Z,11.12
2023-04-18T02:32:33.460Z,11.00
2023-04-18T02:35:00.887Z,10.90
2023-04-18T02:37:28.213Z,10.79
2023-04-18T02:39:55.598Z,10.98
2023-04-18T02:42:22.617Z,10.94
2023-04-18T02:44:50.253Z,11.03
2023-04-18T02:47:17.277Z,11.01
2023-04-18T02:49:44.468Z,10.88
2023-04-18T02:52:11.652Z,11.05
2023-04-18T02:54:39.013Z,10.83
2023-04-18T02:57:06.029Z,10.90
2023-04-18T02:59:33.338Z,11.00
2023-04-18T03:02:00.442Z,10.94
2023-04-18T03:04:27.747Z,11.07
2023-04-18T03:06:56.321Z,11.00
2023-04-18T03:09:23.823Z,11.03
2023-04-18T03:11:51.103Z,11.09
2023-04-18T03:14:18.700Z,11.25
2023-04-18T03:16:45.997Z,11.34
2023-04-18T03:19:13.267Z,11.07
2023-04-18T03:21:40.394Z,11.13
2023-04-18T03:24:08.836Z,11.07
2023-04-18T03:26:36.606Z,11.21
2023-04-18T03:29:04.000Z,11.28
2023-04-18T03:31:32.179Z,11.17
2023-04-18T03:33:59.459Z,11.50
2023-04-18T03:36:27.645Z,11.45
2023-04-18T03:38:55.552Z,11.39
2023-04-18T03:41:22.791Z,11.14
2023-04-18T03:43:50.103Z,11.19
2023-04-18T03:46:17.226Z,11.22
2023-04-18T03:48:44.476Z,11.16
2023-04-18T03:51:11.728Z,11.28
2023-04-18T03:53:39.286Z,11.30
2023-04-18T03:56:06.642Z,11.35
2023-04-18T03:58:33.900Z,11.30
2023-04-18T04:01:01.264Z,11.27
2023-04-18T04:03:28.860Z,11.28
2023-04-18T04:05:56.236Z,11.24
2023-04-18T04:08:23.547Z,11.23
2023-04-18T04:10:50.643Z,11.14
2023-04-18T04:13:18.230Z,11.17
2023-04-18T04:15:45.456Z,11.27
2023-04-18T04:18:12.869Z,11.41
2023-04-18T04:20:40.059Z,11.33
2023-04-18T04:23:07.508Z,11.22
2023-04-18T04:25:34.751Z,11.30
2023-04-18T04:28:02.825Z,11.25
2023-04-18T04:30:29.932Z,11.38
2023-04-18T04:32:57.112Z,11.37
2023-04-18T04:35:24.125Z,11.38
2023-04-18T04:37:52.864Z,11.19
2023-04-18T04:40:20.157Z,11.13
2023-04-18T04:42:49.379Z,11.19
2023-04-18T04:45:17.560Z,11.21
2023-04-18T04:47:44.979Z,11.24
2023-04-18T04:50:15.622Z,11.41
2023-04-18T04:52:43.266Z,11.32
2023-04-18T04:55:10.867Z,11.62
2023-04-18T04:57:38.263Z,11.78
2023-04-18T05:00:07.223Z,12.00
2023-04-18T05:02:34.639Z,11.93
2023-04-18T05:05:01.733Z,12.50
2023-04-18T05:07:29.338Z,12.61
2023-04-18T05:09:56.390Z,12.31
2023-04-18T05:12:24.003Z,12.01
2023-04-18T05:14:51.228Z,11.80
2023-04-18T05:17:18.416Z,11.68
2023-04-18T05:19:45.757Z,11.68
2023-04-18T05:22:13.289Z,11.95
2023-04-18T05:24:40.797Z,12.08
2023-04-18T05:27:08.616Z,12.03
2023-04-18T05:29:35.870Z,11.70
2023-04-18T05:32:03.490Z,11.99
2023-04-18T05:34:31.121Z,12.37
2023-04-18T05:36:58.866Z,12.37
2023-04-18T05:39:26.030Z,12.51
2023-04-18T05:41:53.247Z,12.34
2023-04-18T05:44:20.938Z,12.95
2023-04-18T05:46:51.594Z,12.63
2023-04-18T05:49:19.768Z,12.45
2023-04-18T05:51:49.788Z,12.70
2023-04-18T05:54:17.047Z,12.20
2023-04-18T05:56:44.639Z,12.04
2023-04-18T05:59:14.918Z,12.09
2023-04-18T06:01:42.309Z,11.81
2023-04-18T06:04:09.696Z,11.76
2023-04-18T06:06:37.264Z,11.75
2023-04-18T06:09:04.487Z,11.98
2023-04-18T06:11:36.033Z,12.17
2023-04-18T06:14:03.797Z,12.43
2023-04-18T06:16:31.037Z,11.95
2023-04-18T06:19:00.926Z,12.20
2023-04-18T06:21:28.822Z,12.42
2023-04-18T06:23:55.820Z,12.46
2023-04-18T06:26:23.350Z,12.38
2023-04-18T06:28:50.667Z,12.84
2023-04-18T06:31:17.985Z,12.75
2023-04-18T06:33:45.118Z,12.78
2023-04-18T06:36:12.660Z,12.88
2023-04-18T06:38:39.564Z,12.69
2023-04-18T06:41:06.974Z,12.95
2023-04-18T06:43:35.931Z,12.90
2023-04-18T06:46:05.491Z,12.83
2023-04-18T06:48:32.929Z,13.08
2023-04-18T06:51:00.390Z,12.86
2023-04-18T06:53:27.369Z,13.05
2023-04-18T06:55:55.126Z,13.44
2023-04-18T06:58:22.169Z,13.61
2023-04-18T07:00:52.178Z,13.89
2023-04-18T07:03:19.514Z,13.88
2023-04-18T07:05:47.296Z,14.13
2023-04-18T07:08:14.263Z,14.55
2023-04-18T07:10:41.651Z,14.03
2023-04-18T07:13:08.708Z,14.03
2023-04-18T07:15:36.344Z,14.04
2023-04-18T07:18:03.706Z,14.24
2023-04-18T07:20:31.309Z,13.70
2023-04-18T07:22:58.217Z,14.22
2023-04-18T07:25:25.619Z,14.31
2023-04-18T07:27:52.982Z,14.34
2023-04-18T07:30:20.216Z,14.68
2023-04-18T07:32:47.686Z,14.02
2023-04-18T07:35:15.475Z,14.32
2023-04-18T07:37:42.427Z,14.36
2023-04-18T07:40:10.092Z,14.48
2023-04-18T07:42:37.322Z,13.97
2023-04-18T07:45:05.154Z,13.67
2023-04-18T07:47:33.470Z,13.58
2023-04-18T07:50:01.424Z,13.90
2023-04-18T07:52:28.386Z,14.18
2023-04-18T07:54:55.837Z,14.26
2023-04-18T07:57:22.971Z,14.04
2023-04-18T07:59:53.846Z,14.18
2023-04-18T08:02:21.837Z,14.54
2023-04-18T08:04:50.271Z,13.87
2023-04-18T08:07:17.438Z,14.42
2023-04-18T08:09:44.628Z,14.51
2023-04-18T08:12:12.001Z,14.46
2023-04-18T08:14:39.344Z,14.89
2023-04-18T08:17:06.393Z,15.43
2023-04-18T08:19:33.851Z,15.82
2023-04-18T08:22:09.747Z,15.32
2023-04-18T08:24:46.440Z,15.19
2023-04-18T08:27:18.594Z,14.89
2023-04-18T08:29:46.594Z,14.25
2023-04-18T08:32:13.501Z,15.24
2023-04-18T08:34:41.075Z,15.26
2023-04-18T08:37:08.472Z,15.69
2023-04-18T08:39:35.897Z,16.04
2023-04-18T08:42:03.960Z,16.85
2023-04-18T08:44:31.495Z,17.06
2023-04-18T08:47:00.239Z,15.42
2023-04-18T08:49:28.538Z,15.22
2023-04-18T08:51:57.609Z,14.95
2023-04-18T08:54:27.355Z,14.80
2023-04-18T08:57:05.006Z,14.56
2023-04-18T08:59:32.565Z,15.18
2023-04-18T09:02:01.631Z,15.51
2023-04-18T09:04:41.057Z,15.95
2023-04-18T09:07:10.285Z,17.09
2023-04-18T09:09:40.690Z,17.30
2023-04-18T09:12:09.392Z,18.44
2023-04-18T09:14:37.541Z,17.91
2023-04-18T09:17:05.601Z,17.56
2023-04-18T09:19:34.223Z,17.41
2023-04-18T09:22:02.283Z,17.31
2023-04-18T09:24:29.633Z,17.65
2023-04-18T09:26:58.902Z,16.58
2023-04-18T09:29:46.783Z,15.83
2023-04-18T09:32:29.607Z,15.26
2023-04-18T09:35:04.576Z,15.16
2023-04-18T09:37:32.009Z,15.96
2023-04-18T09:39:59.640Z,15.87
2023-04-18T09:42:28.808Z,15.39
2023-04-18T09:45:02.265Z,15.53
2023-04-18T09:47:32.580Z,15.39
2023-04-18T09:49:59.856Z,15.61
2023-04-18T09:52:33.452Z,15.98
2023-04-18T09:55:02.943Z,16.02
2023-04-18T09:57:31.477Z,16.74
2023-04-18T09:59:58.678Z,16.67
2023-04-18T10:02:29.564Z,16.81
2023-04-18T10:04:59.673Z,17.22
2023-04-18T10:07:27.773Z,17.78
2023-04-18T10:09:54.978Z,17.66
2023-04-18T10:12:22.090Z,17.55
2023-04-18T10:14:49.780Z,17.71
2023-04-18T10:17:16.929Z,17.30
2023-04-18T10:19:46.474Z,17.40
2023-04-18T10:22:13.638Z,17.61
2023-04-18T10:24:48.379Z,18.04
2023-04-18T10:27:19.549Z,17.68
2023-04-18T10:29:49.394Z,17.64
2023-04-18T10:32:18.289Z,17.16
2023-04-18T10:34:49.705Z,17.40
2023-04-18T10:37:17.809Z,17.34
2023-04-18T10:40:03.055Z,17.33
2023-04-18T10:42:48.058Z,18.22
2023-04-18T10:45:26.380Z,17.93
2023-04-18T10:48:30.868Z,18.05
2023-04-18T10:51:17.946Z,17.42
2023-04-18T10:54:03.949Z,17.08
2023-04-18T10:56:31.915Z,17.09
2023-04-18T10:59:02.192Z,17.35
2023-04-18T11:01:33.262Z,17.72
2023-04-18T11:04:01.320Z,17.44
2023-04-18T11:06:29.109Z,17.67
2023-04-18T11:09:13.786Z,17.54
2023-04-18T11:11:42.133Z,17.37
2023-04-18T11:14:09.227Z,17.47
2023-04-18T11:16:36.622Z,17.61
2023-04-18T11:19:20.461Z,17.61
2023-04-18T11:21:48.172Z,17.84
2023-04-18T11:24:23.265Z,17.26
2023-04-18T11:26:50.762Z,17.09
2023-04-18T11:29:19.128Z,17.42
2023-04-18T11:31:58.362Z,17.53
2023-04-18T11:34:31.844Z,17.30
2023-04-18T11:36:59.665Z,17.66
2023-04-18T11:39:26.703Z,17.79
2023-04-18T11:41:56.524Z,17.65
2023-04-18T11:44:25.025Z,17.84
2023-04-18T11:46:55.438Z,18.09
2023-04-18T11:49:27.062Z,18.85
2023-04-18T11:51:54.354Z,18.85
2023-04-18T11:54:44.468Z,18.46
2023-04-18T11:57:29.586Z,18.91
2023-04-18T12:00:01.088Z,19.03
2023-04-18T12:02:59.493Z,19.07
2023-04-18T12:05:29.344Z,19.78
2023-04-18T12:07:57.753Z,19.85
2023-04-18T12:10:27.769Z,19.73
2023-04-18T12:12:56.561Z,19.20
2023-04-18T12:15:27.219Z,18.68
2023-04-18T12:18:02.608Z,19.44
2023-04-18T12:20:37.701Z,19.57
2023-04-18T12:23:05.238Z,19.31
2023-04-18T12:25:32.904Z,19.47
2023-04-18T12:28:13.877Z,19.37
2023-04-18T12:30:42.195Z,19.79
2023-04-18T12:33:09.366Z,18.60
2023-04-18T12:35:36.876Z,18.86
2023-04-18T12:38:04.999Z,19.14
2023-04-18T12:40:32.041Z,19.44
2023-04-18T12:43:00.124Z,19.47
2023-04-18T12:45:29.565Z,19.90
2023-04-18T12:47:56.751Z,19.40
2023-04-18T12:50:26.066Z,19.28
2023-04-18T12:52:55.185Z,18.91
2023-04-18T12:55:22.921Z,19.14
2023-04-18T12:57:52.087Z,19.63
2023-04-18T13:00:19.209Z,19.58
2023-04-18T13:02:46.538Z,19.30
2023-04-18T13:05:15.050Z,19.43
2023-04-18T13:07:43.204Z,19.21
2023-04-18T13:10:11.984Z,19.16
2023-04-18T13:12:40.899Z,19.14
2023-04-18T13:15:09.233Z,19.58
2023-04-18T13:17:37.338Z,19.62
2023-04-18T13:20:12.815Z,19.61
2023-04-18T13:22:41.631Z,19.23
2023-04-18T13:25:10.799Z,19.98
2023-04-18T13:27:41.585Z,20.37
2023-04-18T13:30:11.108Z,20.39
2023-04-18T13:32:40.738Z,19.46
2023-04-18T13:35:09.267Z,19.71
2023-04-18T13:37:37.517Z,19.70
2023-04-18T13:40:06.755Z,19.76
2023-04-18T13:42:34.489Z,19.73
2023-04-18T13:45:01.796Z,20.53
2023-04-18T13:47:29.861Z,20.61
2023-04-18T13:49:57.882Z,19.88
2023-04-18T13:52:26.143Z,19.97
2023-04-18T13:54:53.315Z,20.31
2023-04-18T13:57:21.025Z,20.38
2023-04-18T13:59:48.593Z,20.03
2023-04-18T14:02:15.990Z,20.00
2023-04-18T14:04:43.257Z,19.66
2023-04-18T14:07:10.828Z,20.25
2023-04-18T14:09:37.867Z,20.77
2023-04-18T14:12:05.513Z,20.80
2023-04-18T14:14:32.881Z,20.80
2023-04-18T14:17:00.488Z,20.90
2023-04-18T14:19:27.664Z,20.46
2023-04-18T14:21:55.449Z,20.42
2023-04-18T14:24:22.480Z,20.89
2023-04-18T14:26:49.704Z,20.52
2023-04-18T14:29:16.967Z,20.14
2023-04-18T14:31:44.397Z,21.05
2023-04-18T14:34:11.339Z,20.51
2023-04-18T14:36:38.925Z,20.76
2023-04-18T14:39:05.867Z,21.06
2023-04-18T14:41:33.157Z,20.60
2023-04-18T14:44:00.329Z,20.69
2023-04-18T14:46:28.658Z,20.32
2023-04-18T14:48:55.819Z,20.59
2023-04-18T14:51:23.978Z,20.64
2023-04-18T14:53:51.433Z,20.32
2023-04-18T14:56:21.252Z,19.74
2023-04-18T14:58:48.784Z,19.70
2023-04-18T15:01:17.687Z,19.62
2023-04-18T15:03:45.572Z,19.62
2023-04-18T15:06:13.581Z,19.83
2023-04-18T15:08:40.848Z,20.32
2023-04-18T15:11:08.391Z,20.17
2023-04-18T15:13:35.736Z,19.99
2023-04-18T15:16:03.649Z,19.85
2023-04-18T15:18:30.903Z,20.06
2023-04-18T15:21:01.198Z,20.78
2023-04-18T15:23:28.277Z,20.06
2023-04-18T15:25:56.329Z,19.77
2023-04-18T15:28:23.356Z,20.29
2023-04-18T15:30:50.610Z,20.21
2023-04-18T15:33:19.242Z,20.11
2023-04-18T15:35:47.876Z,20.36
2023-04-18T15:38:15.098Z,19.46
2023-04-18T15:40:43.634Z,19.12
2023-04-18T15:43:11.204Z,19.65
2023-04-18T15:45:39.844Z,19.27
2023-04-18T15:48:07.232Z,19.34
2023-04-18T15:50:34.806Z,19.27
2023-04-18T15:53:02.461Z,18.83
2023-04-18T15:55:29.928Z,18.40
2023-04-18T15:57:57.163Z,18.13
2023-04-18T16:00:24.498Z,18.32
2023-04-18T16:02:52.050Z,18.04
2023-04-18T16:05:19.577Z,17.68
2023-04-18T16:07:46.579Z,17.66
2023-04-18T16:10:15.449Z,17.93
2023-04-18T16:12:42.547Z,17.78
2023-04-18T16:15:10.314Z,17.60
2023-04-18T16:17:38.347Z,17.90
2023-04-18T16:20:08.326Z,17.20
2023-04-18T16:22:35.634Z,17.13
2023-04-18T16:25:04.103Z,16.82
2023-04-18T16:27:31.049Z,16.85
2023-04-18T16:29:58.301Z,17.02
2023-04-18T16:32:25.582Z,17.13
2023-04-18T16:34:52.964Z,16.90
2023-04-18T16:37:20.276Z,16.76
2023-04-18T16:39:47.699Z,16.77
2023-04-18T16:42:15.859Z,16.41
2023-04-18T16:44:45.299Z,16.34
2023-04-18T16:47:12.366Z,16.81
2023-04-18T16:49:40.679Z,16.24
2023-04-18T16:52:07.604Z,16.42
2023-04-18T16:54:35.187Z,16.41
2023-04-18T16:57:02.947Z,16.34
2023-04-18T16:59:30.282Z,16.29
2023-04-18T17:01:59.231Z,16.23
2023-04-18T17:04:29.674Z,16.09
2023-04-18T17:06:56.887Z,16.10
2023-04-18T17:09:24.482Z,16.00
2023-04-18T17:11:51.624Z,16.09
2023-04-18T17:14:19.021Z,16.00
2023-04-18T17:16:46.273Z,15.88
2023-04-18T17:19:15.271Z,15.66
2023-04-18T17:21:43.598Z,15.77
2023-04-18T17:24:11.143Z,15.78
2023-04-18T17:26:39.005Z,15.49
2023-04-18T17:29:06.411Z,15.50
2023-04-18T17:31:33.982Z,15.69
2023-04-18T17:34:01.276Z,15.49
2023-04-18T17:36:28.402Z,15.65
2023-04-18T17:38:56.130Z,15.47
2023-04-18T17:41:23.433Z,15.25
2023-04-18T17:43:51.238Z,15.35
2023-04-18T17:46:18.576Z,15.35
2023-04-18T17:48:45.889Z,15.27
2023-04-18T17:51:13.014Z,15.07
2023-04-18T17:53:40.548Z,15.14
2023-04-18T17:56:07.489Z,15.08
2023-04-18T17:58:34.695Z,15.22
2023-04-18T18:01:01.759Z,15.10
2023-04-18T18:03:29.320Z,15.19
2023-04-18T18:05:56.529Z,15.25
2023-04-18T18:08:24.622Z,15.30
2023-04-18T18:10:51.651Z,15.17
2023-04-18T18:13:18.865Z,14.85
2023-04-18T18:15:46.120Z,14.79
2023-04-18T18:18:13.481Z,14.99
2023-04-18T18:20:43.930Z,14.76
2023-04-18T18:23:11.428Z,14.50
2023-04-18T18:25:38.576Z,14.47
2023-04-18T18:28:07.288Z,14.34
2023-04-18T18:30:34.696Z,14.05
2023-04-18T18:33:02.222Z,14.24
2023-04-18T18:35:29.268Z,14.26
2023-04-18T18:37:56.875Z,14.10
2023-04-18T18:40:24.181Z,14.10
2023-04-18T18:42:53.967Z,14.27
2023-04-18T18:45:21.782Z,14.25
2023-04-18T18:47:49.083Z,14.12
2023-04-18T18:50:16.555Z,14.33
2023-04-18T18:52:44.170Z,14.30
2023-04-18T18:55:11.393Z,14.20
2023-04-18T18:57:38.899Z,14.05
2023-04-18T19:00:11.119Z,13.98
2023-04-18T19:02:39.407Z,14.00
2023-04-18T19:05:07.347Z,13.96
2023-04-18T19:07:34.830Z,14.14
2023-04-18T19:10:02.080Z,13.95
2023-04-18T19:12:29.736Z,14.11
2023-04-18T19:14:56.848Z,14.20
2023-04-18T19:17:24.942Z,14.02
2023-04-18T19:19:53.189Z,14.06
2023-04-18T19:22:20.531Z,14.06
2023-04-18T19:24:47.722Z,14.09
2023-04-18T19:27:15.421Z,13.91
2023-04-18T19:29:42.453Z,13.84
2023-04-18T19:32:09.946Z,13.84
2023-04-18T19:34:37.889Z,13.81
2023-04-18T19:37:05.527Z,13.86
2023-04-18T19:39:32.787Z,13.89
2023-04-18T19:42:00.797Z,14.03
2023-04-18T19:44:27.866Z,13.88
2023-04-18T19:46:55.491Z,13.67
2023-04-18T19:49:22.794Z,13.89
2023-04-18T19:51:52.476Z,13.61
2023-04-18T19:54:21.880Z,13.57
2023-04-18T19:56:50.367Z,13.60
2023-04-18T19:59:17.383Z,13.63
2023-04-18T20:01:45.016Z,13.55
2023-04-18T20:04:12.460Z,13.47
2023-04-18T20:06:39.739Z,13.47
2023-04-18T20:09:08.662Z,13.54
2023-04-18T20:11:36.387Z,13.42
2023-04-18T20:14:03.589Z,13.62
2023-04-18T20:16:31.853Z,13.44
2023-04-18T20:18:59.302Z,13.20
2023-04-18T20:21:27.373Z,13.10
2023-04-18T20:23:54.576Z,13.17
2023-04-18T20:26:22.183Z,13.30
2023-04-18T20:28:49.114Z,13.25
2023-04-18T20:31:16.504Z,13.19
2023-04-18T20:33:44.000Z,13.14
2023-04-18T20:36:11.478Z,13.18
2023-04-18T20:38:40.338Z,12.93
2023-04-18T20:41:10.882Z,13.11
2023-04-18T20:43:38.708Z,13.05
2023-04-18T20:46:07.097Z,13.04
2023-04-18T20:48:36.368Z,12.94
2023-04-18T20:51:06.642Z,12.91
2023-04-18T20:53:34.369Z,13.10
2023-04-18T20:56:03.723Z,12.86
2023-04-18T20:58:31.962Z,12.73
2023-04-18T21:00:59.920Z,12.70
2023-04-18T21:03:27.355Z,12.79
2023-04-18T21:05:54.765Z,12.80
2023-04-18T21:08:21.821Z,12.58
2023-04-18T21:10:49.257Z,12.49
2023-04-18T21:13:16.499Z,12.22
2023-04-18T21:15:43.892Z,12.29
2023-04-18T21:18:11.338Z,12.05
2023-04-18T21:20:38.786Z,11.84
2023-04-18T21:23:06.192Z,11.27
2023-04-18T21:25:33.678Z,11.04
2023-04-18T21:28:00.725Z,11.06
2023-04-18T21:30:28.150Z,10.95
2023-04-18T21:32:55.579Z,11.09
2023-04-18T21:35:24.684Z,11.24
2023-04-18T21:37:51.972Z,11.19
2023-04-18T21:40:19.551Z,11.13
2023-04-18T21:42:47.771Z,10.92
2023-04-18T21:45:17.293Z,10.88
2023-04-18T21:47:44.631Z,11.10
2023-04-18T21:50:11.917Z,11.20
2023-04-18T21:52:38.953Z,11.27
2023-04-18T21:55:06.620Z,11.24
2023-04-18T21:57:33.614Z,11.28
2023-04-18T22:00:00.925Z,11.12
2023-04-18T22:02:28.236Z,11.28
2023-04-18T22:04:55.678Z,11.17
2023-04-18T22:07:24.226Z,11.37
2023-04-18T22:09:51.745Z,11.30
2023-04-18T22:12:18.716Z,11.42
2023-04-18T22:14:48.507Z,11.53
2023-04-18T22:17:16.352Z,11.72
2023-04-18T22:19:44.658Z,11.40
2023-04-18T22:22:11.947Z,11.45
2023-04-18T22:24:39.303Z,11.37
2023-04-18T22:27:06.251Z,11.61
2023-04-18T22:29:33.736Z,11.52
2023-04-18T22:32:00.788Z,11.45
2023-04-18T22:34:28.010Z,11.42
2023-04-18T22:36:54.959Z,11.42
2023-04-18T22:39:22.366Z,11.48
2023-04-18T22:41:49.268Z,11.57
2023-04-18T22:44:16.855Z,11.21
2023-04-18T22:46:44.882Z,11.25
2023-04-18T22:49:12.325Z,11.30
2023-04-18T22:51:39.568Z,11.44
2023-04-18T22:54:06.901Z,11.34
2023-04-18T22:56:33.911Z,11.07
2023-04-18T22:59:01.184Z,11.14
2023-04-18T23:01:28.614Z,11.18
2023-04-18T23:03:56.281Z,11.25
2023-04-18T23:06:23.682Z,11.25
2023-04-18T23:08:51.501Z,11.12
2023-04-18T23:11:18.475Z,11.18
2023-04-18T23:13:45.982Z,11.13
2023-04-18T23:16:13.119Z,11.24
2023-04-18T23:18:40.570Z,11.15
2023-04-18T23:21:07.688Z,11.16
2023-04-18T23:23:35.149Z,11.05
2023-04-18T23:26:02.170Z,10.95
2023-04-18T23:28:29.759Z,11.24
2023-04-18T23:30:56.912Z,11.32
2023-04-18T23:33:24.102Z,11.34
2023-04-18T23:35:51.058Z,11.32
2023-04-18T23:38:18.538Z,11.32
2023-04-18T23:40:45.559Z,11.43
2023-04-18T23:43:12.782Z,11.33
2023-04-18T23:45:39.918Z,11.38
2023-04-18T23:48:07.177Z,11.34
2023-04-18T23:50:36.413Z,11.32
2023-04-18T23:53:03.947Z,11.42
2023-04-18T23:55:30.918Z,11.38
2023-04-18T23:57:58.280Z,11.32
